Eureka, NV

3:24 AM PDT on August 30, 2014 (GMT -0700)
RAWS COMBS CANYON NV US | Change Station
CLOSE
Current Station
Personal Weather Station
Location: Eureka, NV
Elevation: 6589 ft
Nearby Weather Stations
Active Advisory: Fire Weather Warning

Elev 6589 ft 39.39 °N, 116.18 °W | Updated 45 minutes ago

Clear
Clear
62 °F
Feels Like 62 °F
N
1
Wind Variable Wind from ESE
Gusts 6.0 mph

Today
High -- | Low -- °F
--% Chance of Precip.
Yesterday
High -- | Low -- °F
Precip. -- in
6:10 AM 7:18 PM
Waxing Crescent, 21% visible
Pressure 29.78 in
Visibility 10.0 miles
Clouds Clear
Dew Point 22 °F
Humidity 21%
Rainfall 0.00 in
Snow Depth Not available.
UV 0 out of 12
Pollen 8.70 out of 12
Air Quality Not available.
Flu Activity Not available.
METAR KELY 300953Z AUTO VRB04KT 10SM CLR 14/01 A3010 RMK AO2 SLP085 T01440011

More Conditions Fewer Conditions

Pressure 29.78 in
Visibility 10.0 miles
Clouds Clear
Dew Point 22 °F
Humidity 21%
Rainfall 0.00 in
Snow Depth Not available.
UV 0 out of 12
Pollen 8.70 out of 12
Air Quality Not available.
Flu Activity Not available.
METAR KELY 300953Z AUTO VRB04KT 10SM CLR 14/01 A3010 RMK AO2 SLP085 T01440011

More Conditions Fewer Conditions

10-Day Weather Forecast

Almanac

Astronomy

Aug. 30, 2014 Rise Set
Actual Time 6:10 AM PDT 7:18 PM PDT
Civil Twilight 5:42 AM PDT 7:45 PM PDT
Nautical Twilight 5:09 AM PDT 8:18 PM PDT
Astronomical Twilight 4:35 AM PDT 8:53 PM PDT
Moon 11:01 AM PDT 9:56 PM PDT
Length of Visible Light 14h 02m
Length of Day
13h 07m
Tomorrow will be 2m 29s shorter.
Waxing Crescent, 21% of the Moon is Illuminated
Today
Waxing Crescent
Sep 2
First Quarter
Sep 8
Full
Sep 15
Last Quarter
Sep 24
New

Today's Extremes

State Highs State Lows

Community

WunderPhotos

Upload Photos

1,748,482 photos uploaded!

Nearby

Snow Depth

Station Depth Elevation
Diamond Peak 1 in 8000 ft
Corral Canyon 0 in 8500 ft
Green Mountain 0 in 8000 ft
Big Creek Summit 0 in 8700 ft
Lewis Peak 0 in 7400 ft

Earthquake Activity

City Distance Mag. Time & Date
No recent earthquake activity has been reported nearby.
Minimum magnitude displayed is 2.5.

Coastal Water Temperatures

Place Temperature
No Stations Reporting

Nearby Weather Stations